Time;durP1;ratioP1;P1;durP2;ratioP2;P2;SDS_P1;SDS_P2;PMS_P1;PMS_P2;Temp;Humidity;BMP_temperature;BMP_pressure;BME280_temperature;BME280_humidity;BME280_pressure;Samples;Min_cycle;Max_cycle;Signal;HPM_P1;HPM_P2
2024/01/07 00:02:06;;;;;;;51.55;17.50;;;;;;;;;;4941899;28;20550;-68
2024/01/07 00:04:34;;;;;;;44.83;16.00;;;;;;;;;;4941036;28;20102;-68
2024/01/07 00:06:59;;;;;;;49.97;17.00;;;;;;;;;;4941012;28;20028;-68
2024/01/07 00:09:24;;;;;;;44.38;17.00;;;;;;;;;;4948383;28;20027;-68
2024/01/07 00:11:50;;;;;;;45.90;16.67;;;;;;;;;;4939298;28;20032;-68
2024/01/07 00:14:16;;;;;;;44.55;17.23;;;;;;;;;;4938098;28;20271;-68
2024/01/07 00:16:41;;;;;;;50.03;17.55;;;;;;;;;;4939813;28;20109;-68
2024/01/07 00:19:06;;;;;;;51.38;18.60;;;;;;;;;;4942221;28;20028;-68
2024/01/07 00:21:32;;;;;;;36.95;15.93;;;;;;;;;;4940561;28;20063;-68
2024/01/07 00:23:57;;;;;;;49.50;16.52;;;;;;;;;;4936888;28;20077;-68
2024/01/07 00:26:22;;;;;;;49.35;16.45;;;;;;;;;;4941841;28;20023;-68
2024/01/07 00:28:47;;;;;;;38.97;15.23;;;;;;;;;;4933876;28;20024;-68
2024/01/07 00:31:13;;;;;;;38.08;14.95;;;;;;;;;;4933892;28;20088;-68
2024/01/07 00:33:38;;;;;;;43.22;14.57;;;;;;;;;;4936446;28;20027;-68
2024/01/07 00:36:04;;;;;;;39.55;14.27;;;;;;;;;;4941492;28;20042;-68
2024/01/07 00:38:29;;;;;;;41.20;15.75;;;;;;;;;;4937776;28;20032;-68
2024/01/07 00:40:54;;;;;;;34.70;14.27;;;;;;;;;;4936654;28;20054;-68
2024/01/07 00:43:19;;;;;;;32.22;12.90;;;;;;;;;;4937767;28;20383;-68
2024/01/07 00:45:44;;;;;;;26.80;11.57;;;;;;;;;;4937608;28;20411;-67
2024/01/07 00:48:10;;;;;;;29.67;11.98;;;;;;;;;;4942613;28;20073;-68
2024/01/07 00:50:35;;;;;;;30.23;11.50;;;;;;;;;;4953599;28;20031;-68
2024/01/07 00:53:00;;;;;;;31.83;12.27;;;;;;;;;;4934278;28;20051;-67
2024/01/07 00:55:25;;;;;;;27.83;11.30;;;;;;;;;;4939395;28;20023;-67
2024/01/07 00:57:51;;;;;;;33.85;12.10;;;;;;;;;;4938795;28;20035;-67
2024/01/07 01:00:16;;;;;;;28.48;10.32;;;;;;;;;;4939055;28;20390;-68
2024/01/07 01:02:41;;;;;;;24.58;10.50;;;;;;;;;;4939288;28;20110;-68
2024/01/07 01:05:07;;;;;;;23.33;9.27;;;;;;;;;;4932113;28;20024;-68
2024/01/07 01:07:32;;;;;;;22.40;9.05;;;;;;;;;;4953246;28;20028;-68
2024/01/07 01:09:58;;;;;;;20.05;8.27;;;;;;;;;;4939670;28;20048;-68
2024/01/07 01:12:23;;;;;;;20.98;8.85;;;;;;;;;;4937115;28;20034;-67
2024/01/07 01:14:49;;;;;;;19.77;7.95;;;;;;;;;;4935468;28;20027;-67
2024/01/07 01:17:14;;;;;;;19.25;8.55;;;;;;;;;;4950583;28;20113;-67
2024/01/07 01:19:39;;;;;;;18.45;7.45;;;;;;;;;;4947374;28;20498;-68
2024/01/07 01:22:05;;;;;;;19.83;7.57;;;;;;;;;;4954058;28;20064;-68
2024/01/07 01:24:30;;;;;;;16.50;7.15;;;;;;;;;;4938910;28;20029;-68
2024/01/07 01:26:55;;;;;;;12.10;5.80;;;;;;;;;;4939734;28;20032;-68
2024/01/07 01:29:20;;;;;;;15.90;6.67;;;;;;;;;;4940408;28;20334;-68
2024/01/07 01:31:45;;;;;;;20.07;8.50;;;;;;;;;;4936078;28;20287;-67
2024/01/07 01:34:10;;;;;;;16.10;7.67;;;;;;;;;;4940290;28;20308;-67
2024/01/07 01:36:36;;;;;;;20.60;7.90;;;;;;;;;;4942507;28;20799;-68
2024/01/07 01:39:01;;;;;;;16.02;7.32;;;;;;;;;;4932845;28;20020;-67
2024/01/07 01:41:26;;;;;;;16.25;7.35;;;;;;;;;;4941714;28;20632;-67
2024/01/07 01:43:51;;;;;;;24.83;9.33;;;;;;;;;;4937144;28;20081;-68
2024/01/07 01:46:17;;;;;;;18.38;8.85;;;;;;;;;;4942433;28;20259;-67
2024/01/07 01:48:42;;;;;;;28.63;9.57;;;;;;;;;;4940584;28;20027;-67
2024/01/07 01:51:08;;;;;;;25.23;10.23;;;;;;;;;;4941846;28;20027;-68
2024/01/07 01:53:33;;;;;;;29.67;12.68;;;;;;;;;;4936812;28;20104;-68
2024/01/07 01:56:00;;;;;;;34.17;12.85;;;;;;;;;;4940243;28;20039;-68
2024/01/07 01:58:26;;;;;;;29.00;11.43;;;;;;;;;;4934860;28;20031;-68
2024/01/07 02:00:51;;;;;;;31.02;12.07;;;;;;;;;;4944370;29;20088;-67
2024/01/07 02:03:17;;;;;;;31.52;12.20;;;;;;;;;;4940592;28;20146;-68
2024/01/07 02:05:42;;;;;;;33.67;13.13;;;;;;;;;;4932915;28;20031;-68
2024/01/07 02:08:08;;;;;;;31.58;12.57;;;;;;;;;;4935869;28;21540;-67
2024/01/07 02:10:36;;;;;;;31.42;12.55;;;;;;;;;;4939318;28;20375;-67
2024/01/07 02:13:01;;;;;;;28.63;12.15;;;;;;;;;;4938086;28;20039;-68
2024/01/07 02:15:26;;;;;;;30.00;12.85;;;;;;;;;;4933833;28;20049;-67
2024/01/07 02:17:52;;;;;;;28.08;11.60;;;;;;;;;;4944158;28;20039;-67
2024/01/07 02:20:17;;;;;;;29.42;12.98;;;;;;;;;;4962884;28;20474;-67
2024/01/07 02:22:42;;;;;;;34.80;13.15;;;;;;;;;;4936261;28;20081;-68
2024/01/07 02:25:08;;;;;;;29.02;13.00;;;;;;;;;;4943246;28;20049;-68
2024/01/07 02:27:33;;;;;;;33.22;14.05;;;;;;;;;;4942811;28;20402;-68
2024/01/07 02:29:59;;;;;;;35.58;13.55;;;;;;;;;;4942847;28;20493;-68
2024/01/07 02:32:24;;;;;;;32.97;14.15;;;;;;;;;;4943289;28;20058;-68
2024/01/07 02:34:49;;;;;;;39.13;15.07;;;;;;;;;;4941242;28;20102;-67
2024/01/07 02:37:14;;;;;;;38.72;14.98;;;;;;;;;;4945351;28;20700;-68
2024/01/07 02:39:39;;;;;;;39.65;14.82;;;;;;;;;;4937720;28;20049;-68
2024/01/07 02:42:05;;;;;;;39.95;15.20;;;;;;;;;;4944308;28;20031;-68
2024/01/07 02:44:30;;;;;;;40.67;16.60;;;;;;;;;;4964512;28;20096;-68
2024/01/07 02:46:55;;;;;;;41.88;16.85;;;;;;;;;;4935241;28;20085;-67
2024/01/07 02:49:20;;;;;;;39.33;15.77;;;;;;;;;;4947485;28;20054;-67
2024/01/07 02:51:49;;;;;;;48.53;18.05;;;;;;;;;;4941753;28;20252;-67
2024/01/07 02:54:14;;;;;;;45.25;17.00;;;;;;;;;;4938405;28;20035;-68
2024/01/07 02:56:39;;;;;;;38.45;17.00;;;;;;;;;;4940621;28;20024;-68
2024/01/07 02:59:04;;;;;;;40.50;14.85;;;;;;;;;;4943478;28;20070;-68
2024/01/07 03:01:29;;;;;;;47.70;17.48;;;;;;;;;;4951069;28;20086;-67
2024/01/07 03:03:55;;;;;;;40.25;17.33;;;;;;;;;;4940174;28;20092;-67
2024/01/07 03:06:20;;;;;;;41.47;17.67;;;;;;;;;;4945518;28;20061;-68
2024/01/07 03:08:45;;;;;;;45.80;16.65;;;;;;;;;;4941410;28;20762;-67
2024/01/07 03:11:10;;;;;;;40.90;15.52;;;;;;;;;;4944676;28;20064;-67
2024/01/07 03:13:36;;;;;;;35.30;15.65;;;;;;;;;;4944903;28;20499;-67
2024/01/07 03:16:01;;;;;;;38.80;15.25;;;;;;;;;;4938458;28;20027;-68
2024/01/07 03:18:27;;;;;;;33.88;14.98;;;;;;;;;;4946853;28;20154;-68
2024/01/07 03:20:52;;;;;;;37.90;16.05;;;;;;;;;;4940342;28;20110;-68
2024/01/07 03:23:18;;;;;;;39.72;15.30;;;;;;;;;;4940587;28;20149;-68
2024/01/07 03:25:44;;;;;;;38.67;16.00;;;;;;;;;;4940228;28;20035;-68
2024/01/07 03:28:09;;;;;;;33.30;15.10;;;;;;;;;;4944002;28;20031;-68
2024/01/07 03:30:34;;;;;;;35.60;15.90;;;;;;;;;;4938688;28;20031;-67
2024/01/07 03:32:59;;;;;;;37.72;15.50;;;;;;;;;;4948289;28;20029;-67
2024/01/07 03:35:24;;;;;;;35.92;16.23;;;;;;;;;;4939510;28;20035;-68
2024/01/07 03:37:50;;;;;;;36.88;14.43;;;;;;;;;;4940958;28;20040;-68
2024/01/07 03:40:15;;;;;;;32.67;13.13;;;;;;;;;;4940698;28;20099;-67
2024/01/07 03:42:40;;;;;;;31.70;13.27;;;;;;;;;;4942171;28;20028;-67
2024/01/07 03:45:05;;;;;;;34.00;14.75;;;;;;;;;;4939729;28;20039;-68
2024/01/07 03:47:31;;;;;;;35.25;12.63;;;;;;;;;;4940060;28;20028;-67
2024/01/07 03:49:56;;;;;;;38.55;14.00;;;;;;;;;;4947224;28;20012;-67
2024/01/07 03:52:22;;;;;;;36.03;14.68;;;;;;;;;;4942679;28;20027;-67
2024/01/07 03:54:47;;;;;;;32.92;14.55;;;;;;;;;;4941888;28;20371;-68
2024/01/07 03:57:13;;;;;;;37.37;14.67;;;;;;;;;;4941384;28;20032;-68
2024/01/07 03:59:38;;;;;;;39.45;14.75;;;;;;;;;;4940949;28;20783;-68
2024/01/07 04:02:03;;;;;;;32.55;13.18;;;;;;;;;;4951375;28;20416;-68
2024/01/07 04:04:28;;;;;;;41.70;14.95;;;;;;;;;;4944785;28;20099;-67
2024/01/07 04:06:54;;;;;;;39.40;14.45;;;;;;;;;;4943547;28;20039;-67
2024/01/07 04:09:20;;;;;;;39.03;14.60;;;;;;;;;;4941522;28;20533;-68
2024/01/07 04:11:45;;;;;;;36.30;14.30;;;;;;;;;;4940671;28;20320;-68
2024/01/07 04:14:10;;;;;;;39.30;14.63;;;;;;;;;;4941495;28;20118;-68
2024/01/07 04:16:35;;;;;;;29.52;13.90;;;;;;;;;;4939999;28;20066;-68
2024/01/07 04:19:00;;;;;;;34.70;13.07;;;;;;;;;;4940014;28;20059;-68
2024/01/07 04:21:26;;;;;;;33.53;14.23;;;;;;;;;;4944530;28;20031;-67
2024/01/07 04:23:51;;;;;;;32.97;12.80;;;;;;;;;;4938989;28;20482;-67
2024/01/07 04:26:16;;;;;;;30.42;12.80;;;;;;;;;;4944660;28;20274;-68
2024/01/07 04:28:42;;;;;;;35.83;13.10;;;;;;;;;;4942230;28;20023;-67
2024/01/07 04:31:07;;;;;;;35.30;13.02;;;;;;;;;;4942214;28;20527;-67
2024/01/07 04:33:32;;;;;;;30.83;13.50;;;;;;;;;;4943620;28;20031;-68
2024/01/07 04:35:59;;;;;;;34.30;13.63;;;;;;;;;;4942169;28;20032;-67
2024/01/07 04:38:24;;;;;;;34.65;15.57;;;;;;;;;;4941844;28;20544;-67
2024/01/07 04:40:50;;;;;;;36.47;14.60;;;;;;;;;;4943988;28;20031;-67
2024/01/07 04:43:15;;;;;;;38.85;15.55;;;;;;;;;;4962769;28;20023;-67
2024/01/07 04:45:40;;;;;;;41.55;15.98;;;;;;;;;;4939684;28;20031;-68
2024/01/07 04:48:05;;;;;;;30.95;14.40;;;;;;;;;;4937099;28;20039;-67
2024/01/07 04:50:31;;;;;;;40.38;15.75;;;;;;;;;;4943751;28;20041;-67
2024/01/07 04:52:56;;;;;;;43.63;16.33;;;;;;;;;;4963798;28;20071;-67
2024/01/07 04:55:21;;;;;;;39.67;14.95;;;;;;;;;;4950042;28;20497;-67
2024/01/07 04:57:46;;;;;;;39.22;15.32;;;;;;;;;;4941823;28;20046;-68
2024/01/07 05:00:12;;;;;;;38.60;16.30;;;;;;;;;;4937875;28;20045;-67
2024/01/07 05:02:37;;;;;;;37.80;14.85;;;;;;;;;;4938612;28;20327;-67
2024/01/07 05:05:02;;;;;;;42.53;16.23;;;;;;;;;;4945181;29;20023;-67
2024/01/07 05:07:27;;;;;;;37.55;15.35;;;;;;;;;;4944240;28;20494;-68
2024/01/07 05:09:53;;;;;;;40.28;14.95;;;;;;;;;;4940754;28;20031;-67
2024/01/07 05:12:18;;;;;;;30.45;14.48;;;;;;;;;;4955712;28;20018;-68
2024/01/07 05:14:43;;;;;;;38.22;15.15;;;;;;;;;;4952643;28;20028;-68
2024/01/07 05:17:09;;;;;;;33.83;14.85;;;;;;;;;;4938373;28;20047;-68
2024/01/07 05:19:34;;;;;;;35.55;14.90;;;;;;;;;;4964450;28;20017;-67
2024/01/07 05:21:59;;;;;;;45.50;17.15;;;;;;;;;;4936131;28;20039;-67
2024/01/07 05:24:25;;;;;;;36.25;14.93;;;;;;;;;;4937827;28;20032;-67
2024/01/07 05:26:50;;;;;;;36.92;16.42;;;;;;;;;;4940677;28;20051;-67
2024/01/07 05:29:15;;;;;;;41.55;15.85;;;;;;;;;;4935361;28;20479;-68
2024/01/07 05:31:41;;;;;;;36.60;15.93;;;;;;;;;;4947012;28;20035;-67
2024/01/07 05:34:06;;;;;;;37.97;14.98;;;;;;;;;;4939952;28;20116;-67
2024/01/07 05:36:31;;;;;;;39.03;15.52;;;;;;;;;;4939808;28;20074;-67
2024/01/07 05:38:56;;;;;;;37.80;15.52;;;;;;;;;;4930198;28;20376;-67
2024/01/07 05:41:21;;;;;;;36.55;15.45;;;;;;;;;;4940544;28;20023;-67
2024/01/07 05:43:47;;;;;;;38.20;16.50;;;;;;;;;;4943810;28;20497;-68
2024/01/07 05:46:12;;;;;;;43.20;16.20;;;;;;;;;;4952224;28;20036;-68
2024/01/07 05:48:44;;;;;;;35.15;15.88;;;;;;;;;;5001354;28;20025;-68
2024/01/07 05:51:09;;;;;;;38.58;15.55;;;;;;;;;;4938356;28;20038;-68
2024/01/07 05:53:34;;;;;;;36.95;14.77;;;;;;;;;;4937545;28;20106;-68
2024/01/07 05:56:00;;;;;;;34.55;15.23;;;;;;;;;;4941021;28;20032;-68
2024/01/07 05:58:25;;;;;;;40.10;16.98;;;;;;;;;;4945913;28;20031;-68
2024/01/07 06:00:50;;;;;;;39.33;16.05;;;;;;;;;;4953676;28;20033;-68
2024/01/07 06:03:16;;;;;;;34.28;15.00;;;;;;;;;;4957384;28;20071;-68
2024/01/07 06:05:41;;;;;;;38.45;15.90;;;;;;;;;;5002057;28;20384;-69
2024/01/07 06:08:06;;;;;;;33.78;14.30;;;;;;;;;;4941238;28;20398;-68
2024/01/07 06:10:31;;;;;;;37.22;15.38;;;;;;;;;;4941602;28;20028;-68
2024/01/07 06:12:56;;;;;;;34.27;14.33;;;;;;;;;;4944952;28;20475;-68
2024/01/07 06:15:22;;;;;;;36.03;13.97;;;;;;;;;;4945208;28;20266;-68
2024/01/07 06:17:48;;;;;;;35.83;14.13;;;;;;;;;;4940590;28;20588;-68
2024/01/07 06:20:14;;;;;;;38.47;15.63;;;;;;;;;;4943943;28;20025;-68
2024/01/07 06:22:39;;;;;;;43.03;17.27;;;;;;;;;;4976100;28;20512;-69
2024/01/07 06:25:04;;;;;;;41.13;17.27;;;;;;;;;;4974196;28;20442;-68
2024/01/07 06:27:29;;;;;;;31.50;13.20;;;;;;;;;;4954197;28;20077;-68
2024/01/07 06:29:55;;;;;;;39.47;15.98;;;;;;;;;;4941210;28;20019;-68
2024/01/07 06:32:21;;;;;;;42.17;18.52;;;;;;;;;;4943083;28;20035;-68
2024/01/07 06:34:46;;;;;;;41.58;17.35;;;;;;;;;;4968665;28;20061;-68
2024/01/07 06:37:11;;;;;;;41.08;16.40;;;;;;;;;;4952062;28;20506;-68
2024/01/07 06:39:37;;;;;;;39.90;17.60;;;;;;;;;;4997345;28;20100;-68
2024/01/07 06:42:02;;;;;;;42.25;15.57;;;;;;;;;;4944625;28;20841;-68
2024/01/07 06:44:28;;;;;;;42.42;16.38;;;;;;;;;;4947069;28;20016;-68
2024/01/07 06:46:53;;;;;;;35.97;14.80;;;;;;;;;;4938671;28;20453;-68
2024/01/07 06:49:18;;;;;;;39.47;15.40;;;;;;;;;;4945020;28;20423;-68
2024/01/07 06:51:43;;;;;;;37.83;16.52;;;;;;;;;;4943650;28;20035;-68
2024/01/07 06:54:08;;;;;;;35.70;15.02;;;;;;;;;;4945833;28;20031;-68
2024/01/07 06:56:33;;;;;;;37.05;14.43;;;;;;;;;;5000690;28;20544;-68
2024/01/07 06:58:59;;;;;;;31.73;14.20;;;;;;;;;;4940661;28;20429;-68
2024/01/07 07:01:24;;;;;;;34.03;14.48;;;;;;;;;;4942708;28;20031;-68
2024/01/07 07:03:49;;;;;;;30.30;13.07;;;;;;;;;;4942673;28;20032;-68
2024/01/07 07:06:15;;;;;;;29.63;13.35;;;;;;;;;;4940305;28;20526;-68
2024/01/07 07:08:40;;;;;;;31.52;13.98;;;;;;;;;;4942068;28;20501;-68
2024/01/07 07:11:05;;;;;;;28.10;14.45;;;;;;;;;;4945872;28;20145;-68
2024/01/07 07:13:30;;;;;;;31.23;13.60;;;;;;;;;;4957322;28;20024;-68
2024/01/07 07:15:56;;;;;;;33.75;14.23;;;;;;;;;;4950449;28;20088;-68
2024/01/07 07:18:21;;;;;;;33.13;12.93;;;;;;;;;;4936475;28;20077;-68
2024/01/07 07:20:46;;;;;;;31.35;15.35;;;;;;;;;;4943452;28;20022;-68
2024/01/07 07:23:12;;;;;;;34.13;14.20;;;;;;;;;;4940937;28;20045;-68
2024/01/07 07:25:37;;;;;;;26.47;12.07;;;;;;;;;;4940877;28;20019;-68
2024/01/07 07:28:03;;;;;;;32.75;14.93;;;;;;;;;;4966119;28;20304;-68
2024/01/07 07:30:29;;;;;;;28.70;13.52;;;;;;;;;;4943928;28;20050;-68
2024/01/07 07:32:55;;;;;;;30.13;13.40;;;;;;;;;;4943119;28;20024;-68
2024/01/07 07:35:20;;;;;;;32.50;13.82;;;;;;;;;;4945755;28;20027;-68
2024/01/07 07:37:46;;;;;;;38.23;13.57;;;;;;;;;;4944690;28;20054;-68
2024/01/07 07:40:12;;;;;;;27.50;13.40;;;;;;;;;;4942146;28;20317;-70
2024/01/07 07:42:38;;;;;;;29.95;14.45;;;;;;;;;;4938054;28;20024;-68
2024/01/07 07:45:03;;;;;;;27.80;12.70;;;;;;;;;;4982091;28;20528;-68
2024/01/07 07:47:28;;;;;;;31.33;13.65;;;;;;;;;;4953910;28;20027;-68
2024/01/07 07:49:54;;;;;;;33.53;14.35;;;;;;;;;;4943087;28;20382;-68
2024/01/07 07:52:21;;;;;;;28.25;13.57;;;;;;;;;;4944389;28;20027;-68
2024/01/07 07:54:47;;;;;;;33.50;14.05;;;;;;;;;;4940501;28;20057;-68
2024/01/07 07:57:12;;;;;;;33.55;13.60;;;;;;;;;;4943345;28;20027;-68
2024/01/07 07:59:37;;;;;;;36.80;14.57;;;;;;;;;;4992047;28;20048;-68
2024/01/07 08:02:02;;;;;;;33.67;16.17;;;;;;;;;;4956590;28;20368;-68
2024/01/07 08:04:28;;;;;;;35.17;15.13;;;;;;;;;;4952173;28;20047;-68
2024/01/07 08:06:53;;;;;;;34.53;14.55;;;;;;;;;;4942371;28;20448;-68
2024/01/07 08:09:18;;;;;;;33.80;14.15;;;;;;;;;;4943512;28;20020;-68
2024/01/07 08:11:43;;;;;;;27.00;12.63;;;;;;;;;;4943281;28;20027;-68
2024/01/07 08:14:09;;;;;;;30.33;13.87;;;;;;;;;;4944339;28;20059;-68
2024/01/07 08:16:34;;;;;;;31.40;14.43;;;;;;;;;;4992370;28;20260;-68
2024/01/07 08:18:59;;;;;;;32.58;14.13;;;;;;;;;;4976491;28;20150;-68
2024/01/07 08:21:24;;;;;;;30.55;13.50;;;;;;;;;;4957428;28;20038;-68
2024/01/07 08:23:50;;;;;;;36.05;14.63;;;;;;;;;;4943898;28;20094;-68
2024/01/07 08:26:18;;;;;;;31.23;13.50;;;;;;;;;;4935328;28;20031;-68
2024/01/07 08:28:44;;;;;;;32.00;14.30;;;;;;;;;;4944478;28;20031;-68
2024/01/07 08:31:09;;;;;;;32.53;14.77;;;;;;;;;;4947630;28;20055;-68
2024/01/07 08:33:34;;;;;;;34.15;14.77;;;;;;;;;;4990804;28;20256;-68
2024/01/07 08:35:59;;;;;;;45.25;16.23;;;;;;;;;;4939693;28;20024;-68
2024/01/07 08:38:25;;;;;;;35.95;14.38;;;;;;;;;;4941228;28;20078;-68
2024/01/07 08:40:50;;;;;;;36.33;15.48;;;;;;;;;;4937399;28;20482;-68
2024/01/07 08:43:15;;;;;;;39.47;15.80;;;;;;;;;;4940819;28;20023;-68
2024/01/07 08:45:40;;;;;;;41.13;16.13;;;;;;;;;;4955202;28;20376;-68
2024/01/07 08:48:06;;;;;;;36.85;17.02;;;;;;;;;;4972667;28;20259;-67
2024/01/07 08:50:31;;;;;;;33.30;15.57;;;;;;;;;;4942252;28;20023;-68
2024/01/07 08:52:56;;;;;;;35.15;15.57;;;;;;;;;;4943823;28;20032;-68
2024/01/07 08:55:22;;;;;;;33.72;14.80;;;;;;;;;;4939846;28;20030;-68
2024/01/07 08:57:48;;;;;;;36.50;14.82;;;;;;;;;;4936627;28;20023;-68
2024/01/07 09:00:14;;;;;;;32.45;13.95;;;;;;;;;;4939421;28;20023;-68
2024/01/07 09:02:40;;;;;;;30.42;13.45;;;;;;;;;;4957625;28;20354;-68
2024/01/07 09:05:05;;;;;;;35.75;15.00;;;;;;;;;;4954723;28;20057;-68
2024/01/07 09:07:31;;;;;;;35.45;15.15;;;;;;;;;;4969370;28;20043;-68
2024/01/07 09:09:59;;;;;;;29.65;14.38;;;;;;;;;;4943277;28;20150;-68
2024/01/07 09:12:24;;;;;;;35.60;14.52;;;;;;;;;;4938013;28;20069;-68
2024/01/07 09:14:49;;;;;;;32.20;14.35;;;;;;;;;;4935761;28;20035;-68
2024/01/07 09:17:17;;;;;;;26.50;13.17;;;;;;;;;;4970573;28;20031;-68
2024/01/07 09:19:42;;;;;;;28.73;12.85;;;;;;;;;;4973730;28;20276;-68
2024/01/07 09:22:07;;;;;;;23.48;11.38;;;;;;;;;;4934787;28;20027;-68
2024/01/07 09:24:32;;;;;;;26.43;10.90;;;;;;;;;;4944760;28;20024;-68
2024/01/07 09:26:57;;;;;;;24.75;10.80;;;;;;;;;;4939079;28;20261;-68
2024/01/07 09:29:23;;;;;;;21.95;11.07;;;;;;;;;;4933929;28;20031;-68
2024/01/07 09:31:48;;;;;;;22.13;10.90;;;;;;;;;;4941762;28;20371;-68
2024/01/07 09:34:13;;;;;;;23.42;10.13;;;;;;;;;;4934842;28;20026;-68
2024/01/07 09:36:38;;;;;;;21.52;10.45;;;;;;;;;;4965119;28;20403;-68
2024/01/07 09:39:05;;;;;;;23.10;11.03;;;;;;;;;;4956835;28;20505;-68
2024/01/07 09:41:31;;;;;;;23.25;11.13;;;;;;;;;;4938206;28;20646;-69
2024/01/07 09:43:58;;;;;;;19.38;9.70;;;;;;;;;;4934706;28;20020;-68
2024/01/07 09:46:24;;;;;;;21.08;10.02;;;;;;;;;;4928500;28;20016;-68
2024/01/07 09:48:49;;;;;;;22.08;10.27;;;;;;;;;;4933233;28;20037;-68
2024/01/07 09:51:15;;;;;;;20.17;9.68;;;;;;;;;;4966699;28;20027;-68
2024/01/07 09:53:40;;;;;;;20.25;10.07;;;;;;;;;;4963961;28;20381;-68
2024/01/07 09:56:16;;;;;;;17.08;8.98;;;;;;;;;;4974510;28;20023;-68
2024/01/07 09:58:42;;;;;;;17.88;8.98;;;;;;;;;;4947106;28;20031;-68
2024/01/07 10:01:08;;;;;;;21.30;9.70;;;;;;;;;;4929102;28;20026;-68
2024/01/07 10:03:33;;;;;;;16.70;8.85;;;;;;;;;;4934083;28;20024;-68
2024/01/07 10:05:58;;;;;;;16.88;8.30;;;;;;;;;;4940719;28;20110;-68
2024/01/07 10:08:23;;;;;;;15.57;7.43;;;;;;;;;;4968143;28;20596;-68
2024/01/07 10:10:48;;;;;;;19.13;10.20;;;;;;;;;;4939992;28;20303;-69
2024/01/07 10:13:14;;;;;;;16.30;8.32;;;;;;;;;;4969146;28;20032;-68
2024/01/07 10:15:39;;;;;;;21.55;8.38;;;;;;;;;;4940320;28;20027;-68
2024/01/07 10:18:07;;;;;;;17.55;8.82;;;;;;;;;;4930793;28;20054;-68
2024/01/07 10:20:34;;;;;;;19.00;9.45;;;;;;;;;;4941709;28;20047;-68
2024/01/07 10:22:59;;;;;;;26.77;10.50;;;;;;;;;;4940298;28;20024;-68
2024/01/07 10:25:24;;;;;;;24.17;10.77;;;;;;;;;;4961998;28;20027;-68
2024/01/07 10:27:49;;;;;;;24.80;11.48;;;;;;;;;;4972627;28;20018;-68
2024/01/07 10:30:16;;;;;;;26.42;11.93;;;;;;;;;;4960406;28;20024;-69
2024/01/07 10:32:42;;;;;;;28.60;12.48;;;;;;;;;;4929748;28;20114;-68
2024/01/07 10:35:11;;;;;;;33.85;13.65;;;;;;;;;;4935666;28;20032;-68
2024/01/07 10:37:37;;;;;;;28.83;13.25;;;;;;;;;;4940840;28;20019;-69
2024/01/07 10:40:03;;;;;;;32.67;13.90;;;;;;;;;;4932176;28;20510;-68
2024/01/07 10:42:32;;;;;;;31.20;15.20;;;;;;;;;;4962851;28;20019;-68
2024/01/07 10:44:57;;;;;;;28.08;13.40;;;;;;;;;;4992224;28;20026;-68
2024/01/07 10:47:23;;;;;;;28.92;13.38;;;;;;;;;;4938266;28;20062;-68
2024/01/07 10:49:50;;;;;;;23.10;12.27;;;;;;;;;;4938201;28;20130;-67
2024/01/07 10:52:16;;;;;;;27.42;12.57;;;;;;;;;;4932179;28;20080;-67
2024/01/07 10:54:42;;;;;;;32.17;12.77;;;;;;;;;;4937351;28;20054;-68
2024/01/07 10:57:08;;;;;;;34.75;13.43;;;;;;;;;;4947956;28;20065;-68
2024/01/07 10:59:33;;;;;;;29.95;13.13;;;;;;;;;;4960286;28;20570;-68
2024/01/07 11:01:59;;;;;;;28.38;12.55;;;;;;;;;;4965681;28;20510;-67
2024/01/07 11:04:30;;;;;;;30.65;13.27;;;;;;;;;;4946424;28;20019;-67
2024/01/07 11:07:18;;;;;;;22.45;12.68;;;;;;;;;;4937008;28;20127;-68
2024/01/07 11:10:03;;;;;;;29.35;13.48;;;;;;;;;;4928604;28;20031;-67
2024/01/07 11:12:29;;;;;;;31.40;13.13;;;;;;;;;;4935688;28;20023;-67
2024/01/07 11:14:56;;;;;;;30.13;13.98;;;;;;;;;;4938701;28;20058;-67
2024/01/07 11:17:37;;;;;;;29.10;15.65;;;;;;;;;;4942525;28;20395;-67
2024/01/07 11:20:02;;;;;;;;;;;;;;;;;;4937700;28;20020;-67
2024/01/07 11:22:27;;;;;;;31.27;14.70;;;;;;;;;;4941855;28;19973;-67
2024/01/07 11:24:53;;;;;;;34.30;14.27;;;;;;;;;;4939803;28;20027;-67
2024/01/07 11:27:20;;;;;;;32.88;13.52;;;;;;;;;;4951603;28;20102;-67
2024/01/07 11:29:52;;;;;;;30.48;13.45;;;;;;;;;;4940193;28;20116;-67
2024/01/07 11:32:18;;;;;;;27.52;12.75;;;;;;;;;;4934566;28;20123;-68
2024/01/07 11:34:46;;;;;;;30.10;12.73;;;;;;;;;;4929095;28;20111;-68
2024/01/07 11:37:15;;;;;;;26.48;12.90;;;;;;;;;;4938157;28;20037;-68
2024/01/07 11:39:47;;;;;;;26.27;14.03;;;;;;;;;;4939211;28;20023;-68
2024/01/07 11:42:16;;;;;;;25.23;13.13;;;;;;;;;;4941522;28;20027;-68
2024/01/07 11:44:47;;;;;;;26.48;13.27;;;;;;;;;;4934550;28;20023;-68
2024/01/07 11:47:13;;;;;;;28.35;12.90;;;;;;;;;;4949967;28;20106;-69
2024/01/07 11:49:39;;;;;;;23.02;10.60;;;;;;;;;;4957954;28;20030;-68
2024/01/07 11:52:05;;;;;;;25.27;12.10;;;;;;;;;;4964631;28;20026;-70
2024/01/07 11:54:31;;;;;;;27.00;12.60;;;;;;;;;;4945063;28;20028;-69
2024/01/07 11:56:57;;;;;;;26.77;11.68;;;;;;;;;;4955701;28;20088;-68
2024/01/07 11:59:23;;;;;;;26.00;11.75;;;;;;;;;;4938247;28;20019;-68
2024/01/07 12:01:48;;;;;;;23.23;11.30;;;;;;;;;;4967046;28;20179;-68
2024/01/07 12:04:13;;;;;;;23.52;12.55;;;;;;;;;;4937483;28;20046;-68
2024/01/07 12:06:39;;;;;;;22.15;10.85;;;;;;;;;;4943995;28;20175;-68
2024/01/07 12:09:04;;;;;;;22.20;10.60;;;;;;;;;;4938092;28;20199;-67
2024/01/07 12:11:29;;;;;;;24.27;11.15;;;;;;;;;;4939828;28;20023;-68
2024/01/07 12:13:55;;;;;;;21.80;10.45;;;;;;;;;;4961893;28;20090;-68
2024/01/07 12:16:20;;;;;;;23.88;11.95;;;;;;;;;;4947225;28;20636;-68
2024/01/07 12:18:45;;;;;;;21.20;9.18;;;;;;;;;;4945424;28;20037;-67
2024/01/07 12:21:11;;;;;;;27.55;11.65;;;;;;;;;;4947138;28;20031;-68
2024/01/07 12:23:36;;;;;;;25.35;13.50;;;;;;;;;;4948039;28;20054;-68
2024/01/07 12:26:09;;;;;;;26.17;10.30;;;;;;;;;;4932331;28;20023;-68
2024/01/07 12:28:34;;;;;;;23.52;10.35;;;;;;;;;;4951648;28;20028;-68
2024/01/07 12:31:01;;;;;;;17.67;9.98;;;;;;;;;;4945002;28;20509;-68
2024/01/07 12:33:27;;;;;;;20.50;9.75;;;;;;;;;;4947793;28;20027;-68
2024/01/07 12:35:52;;;;;;;18.20;9.38;;;;;;;;;;4939875;28;20570;-68
2024/01/07 12:38:22;;;;;;;21.33;10.02;;;;;;;;;;4939075;28;20023;-68
2024/01/07 12:40:47;;;;;;;22.05;9.93;;;;;;;;;;4938688;28;20040;-67
2024/01/07 12:43:13;;;;;;;17.83;10.00;;;;;;;;;;4959030;28;20015;-68
2024/01/07 12:45:38;;;;;;;20.63;8.32;;;;;;;;;;4929754;28;20020;-67
2024/01/07 12:48:03;;;;;;;15.90;8.00;;;;;;;;;;4936646;28;20394;-68
2024/01/07 12:50:30;;;;;;;23.73;9.50;;;;;;;;;;4935981;28;20074;-68
2024/01/07 12:52:55;;;;;;;23.60;8.95;;;;;;;;;;4935007;28;20031;-68
2024/01/07 12:55:21;;;;;;;23.92;8.88;;;;;;;;;;4935445;28;20024;-68
2024/01/07 12:57:46;;;;;;;17.20;9.55;;;;;;;;;;4929951;28;20028;-68
2024/01/07 13:00:11;;;;;;;14.98;7.47;;;;;;;;;;4931071;28;20035;-68
2024/01/07 13:02:36;;;;;;;15.75;6.25;;;;;;;;;;4935513;28;20494;-68
2024/01/07 13:05:02;;;;;;;14.20;6.88;;;;;;;;;;4949691;28;20028;-68
2024/01/07 13:07:28;;;;;;;16.77;6.63;;;;;;;;;;4934027;28;20027;-68
2024/01/07 13:09:53;;;;;;;13.75;6.15;;;;;;;;;;4945920;28;20027;-68
2024/01/07 13:12:18;;;;;;;15.13;7.35;;;;;;;;;;4947349;28;20574;-68
2024/01/07 13:14:46;;;;;;;14.35;6.28;;;;;;;;;;4933932;28;20726;-68
2024/01/07 13:17:11;;;;;;;14.68;6.55;;;;;;;;;;4942697;28;20020;-68
2024/01/07 13:19:36;;;;;;;13.13;5.47;;;;;;;;;;4937248;28;20038;-68
2024/01/07 13:22:02;;;;;;;12.70;5.35;;;;;;;;;;4953538;28;20748;-68
2024/01/07 13:24:27;;;;;;;14.10;6.18;;;;;;;;;;4942737;28;20390;-68
2024/01/07 13:26:53;;;;;;;11.35;6.05;;;;;;;;;;4938530;28;20032;-68
2024/01/07 13:29:18;;;;;;;13.93;6.43;;;;;;;;;;4935604;28;20051;-68
2024/01/07 13:31:43;;;;;;;16.38;7.40;;;;;;;;;;4944079;28;20073;-68
2024/01/07 13:34:08;;;;;;;12.43;6.47;;;;;;;;;;4945239;28;20027;-68
2024/01/07 13:36:34;;;;;;;15.05;6.63;;;;;;;;;;4928168;28;20031;-68
2024/01/07 13:38:59;;;;;;;13.23;6.10;;;;;;;;;;4939140;28;20024;-68
2024/01/07 13:41:24;;;;;;;17.65;6.65;;;;;;;;;;4933806;28;20043;-68
2024/01/07 13:43:49;;;;;;;9.63;6.00;;;;;;;;;;4936659;28;20106;-68
2024/01/07 13:46:15;;;;;;;11.45;6.25;;;;;;;;;;4946800;28;20020;-68
2024/01/07 13:48:41;;;;;;;15.50;6.32;;;;;;;;;;4936165;28;20023;-68
2024/01/07 13:51:06;;;;;;;12.57;7.10;;;;;;;;;;4942132;28;20030;-68
2024/01/07 13:53:32;;;;;;;12.32;6.57;;;;;;;;;;4934970;28;20522;-68
2024/01/07 13:55:57;;;;;;;10.85;6.53;;;;;;;;;;4932971;28;20035;-68
2024/01/07 13:58:23;;;;;;;14.10;7.60;;;;;;;;;;4938128;28;20479;-68
2024/01/07 14:00:48;;;;;;;11.50;6.32;;;;;;;;;;4944836;28;20036;-68
2024/01/07 14:03:14;;;;;;;11.98;6.60;;;;;;;;;;4946822;28;20015;-68
2024/01/07 14:05:39;;;;;;;13.20;6.40;;;;;;;;;;4937464;28;20039;-68
2024/01/07 14:08:06;;;;;;;12.30;5.82;;;;;;;;;;4930618;28;20445;-68
2024/01/07 14:10:31;;;;;;;9.15;4.30;;;;;;;;;;4932934;28;20020;-68
2024/01/07 14:12:56;;;;;;;10.80;5.07;;;;;;;;;;4933629;28;20027;-68